Skip Navigation LinksHome page > Weather > Current weather Skip Navigation Links

Current Weather

Fua'Amotu, Tonga

For information only: do not use for flight planning or navigation.
Latest weather
Observation time Tuesday, June 22, 2021 2:00 PM +13
Local time Tuesday, June 22, 2021 2:09 PM +13
Flight conditions Visual Meteorological Conditions
Winds
Wind direction West (280°)
Wind speed 13 mph
Visibility 6.2 mi.
Sky condition
Ceiling unlimited
Cloud layer few clouds 1,600 ft.
Temperature 81°F
Dewpoint 73°F
Altimeter 30.00 in.Hg
Derived measurements
Relative humidity 79%
Heat index 85°F
Density altitude 1708 ft.
METAR NFTF 220100Z 28011KT 9999 FEW016TCU 27/23 Q1016

Settings

Location code

InnerDrive.Weather 4.0.6770.0 Release CLR 4.0.30319.42000
Copyright ©2018 Inner Drive Technology. All rights reserved. Portions Copyright ©1986-2018 David Braverman.

Find weather

Site navigation


Skip Navigation Links

Place info

Page info

PayPal - The safer, easier way to pay online!

Return home.

Copyright ©2021 Inner Drive Technology. Purveyors of fine, hand-crafted computer software. Page printed 2021-06-22T01:09:21 UTC.